Terminal Aerodrome Forecast
Issued by NWS

Home | Current Version | Previous Version | Text Only | Print | Product List | Glossary On
Versions: 1 2 3 4 5 6 7 8 9 10 11 12 13 14
000
FTUS46 KLOX 221900 AAA
TAFPMD
TAF AMD
KPMD 221958Z 2220/2318 24018KT P6SM SKC
     FM222200 24020G30KT P6SM SKC
     FM230300 23014KT P6SM SKC
     FM230700 23005KT P6SM SKC
     FM231700 22012KT P6SM SKC=

USA.gov is the U.S. government's official web portal to all federal, state and local government web resources and services.